sensor_id;sensor_type;location;lat;lon;timestamp;temperature;humidity
12948;DHT22;6539;49.476;8.484;2023-05-07T00:01:38;19.40;99.90
12948;DHT22;6539;49.476;8.484;2023-05-07T00:04:06;19.50;99.90
12948;DHT22;6539;49.476;8.484;2023-05-07T00:06:35;19.50;99.90
12948;DHT22;6539;49.476;8.484;2023-05-07T00:09:01;19.50;99.90
12948;DHT22;6539;49.476;8.484;2023-05-07T00:11:27;19.50;99.90
12948;DHT22;6539;49.476;8.484;2023-05-07T00:13:53;19.50;99.90
12948;DHT22;6539;49.476;8.484;2023-05-07T00:16:19;19.50;99.90
12948;DHT22;6539;49.476;8.484;2023-05-07T00:18:45;19.30;99.90
12948;DHT22;6539;49.476;8.484;2023-05-07T00:21:11;19.40;99.90
12948;DHT22;6539;49.476;8.484;2023-05-07T00:23:37;19.40;99.90
12948;DHT22;6539;49.476;8.484;2023-05-07T00:26:07;19.30;99.90
12948;DHT22;6539;49.476;8.484;2023-05-07T00:28:35;19.30;99.90
12948;DHT22;6539;49.476;8.484;2023-05-07T00:31:03;19.30;99.90
12948;DHT22;6539;49.476;8.484;2023-05-07T00:33:29;19.30;99.90
12948;DHT22;6539;49.476;8.484;2023-05-07T00:35:55;19.20;99.90
12948;DHT22;6539;49.476;8.484;2023-05-07T00:38:21;19.20;99.90
12948;DHT22;6539;49.476;8.484;2023-05-07T00:40:46;19.20;99.90
12948;DHT22;6539;49.476;8.484;2023-05-07T00:43:12;19.20;99.90
12948;DHT22;6539;49.476;8.484;2023-05-07T00:45:43;19.20;99.90
12948;DHT22;6539;49.476;8.484;2023-05-07T00:50:39;19.00;99.90
12948;DHT22;6539;49.476;8.484;2023-05-07T00:53:06;19.00;99.90
12948;DHT22;6539;49.476;8.484;2023-05-07T00:55:32;19.00;99.90
12948;DHT22;6539;49.476;8.484;2023-05-07T00:58:01;19.00;99.90
12948;DHT22;6539;49.476;8.484;2023-05-07T01:00:29;18.90;99.90
12948;DHT22;6539;49.476;8.484;2023-05-07T01:02:55;19.00;99.90
12948;DHT22;6539;49.476;8.484;2023-05-07T01:05:23;18.90;99.90
12948;DHT22;6539;49.476;8.484;2023-05-07T01:07:52;18.80;99.90
12948;DHT22;6539;49.476;8.484;2023-05-07T01:10:20;18.80;99.90
12948;DHT22;6539;49.476;8.484;2023-05-07T01:12:48;18.80;99.90
12948;DHT22;6539;49.476;8.484;2023-05-07T01:15:15;18.80;99.90
12948;DHT22;6539;49.476;8.484;2023-05-07T01:17:42;18.80;99.90
12948;DHT22;6539;49.476;8.484;2023-05-07T01:20:12;18.70;99.90
12948;DHT22;6539;49.476;8.484;2023-05-07T01:22:42;18.70;99.90
12948;DHT22;6539;49.476;8.484;2023-05-07T01:25:08;18.60;99.90
12948;DHT22;6539;49.476;8.484;2023-05-07T01:27:37;18.60;99.90
12948;DHT22;6539;49.476;8.484;2023-05-07T01:30:04;18.60;99.90
12948;DHT22;6539;49.476;8.484;2023-05-07T01:32:49;18.60;99.90
12948;DHT22;6539;49.476;8.484;2023-05-07T01:35:27;18.10;99.90
12948;DHT22;6539;49.476;8.484;2023-05-07T01:38:04;18.50;99.90
12948;DHT22;6539;49.476;8.484;2023-05-07T01:40:31;18.40;99.90
12948;DHT22;6539;49.476;8.484;2023-05-07T01:43:00;18.40;99.90
12948;DHT22;6539;49.476;8.484;2023-05-07T01:45:27;18.50;99.90
12948;DHT22;6539;49.476;8.484;2023-05-07T01:47:54;18.50;99.90
12948;DHT22;6539;49.476;8.484;2023-05-07T01:50:20;18.40;99.90
12948;DHT22;6539;49.476;8.484;2023-05-07T01:52:47;18.50;99.90
12948;DHT22;6539;49.476;8.484;2023-05-07T01:55:15;18.40;99.90
12948;DHT22;6539;49.476;8.484;2023-05-07T01:57:43;18.40;99.90
12948;DHT22;6539;49.476;8.484;2023-05-07T02:00:10;18.50;99.90
12948;DHT22;6539;49.476;8.484;2023-05-07T02:02:36;18.50;99.90
12948;DHT22;6539;49.476;8.484;2023-05-07T02:05:03;18.50;99.90
12948;DHT22;6539;49.476;8.484;2023-05-07T02:07:32;18.40;99.90
12948;DHT22;6539;49.476;8.484;2023-05-07T02:09:58;18.40;99.90
12948;DHT22;6539;49.476;8.484;2023-05-07T02:12:26;18.40;99.90
12948;DHT22;6539;49.476;8.484;2023-05-07T02:14:52;18.40;99.90
12948;DHT22;6539;49.476;8.484;2023-05-07T02:17:18;18.40;99.90
12948;DHT22;6539;49.476;8.484;2023-05-07T02:19:44;18.40;99.90
12948;DHT22;6539;49.476;8.484;2023-05-07T02:22:10;18.40;99.90
12948;DHT22;6539;49.476;8.484;2023-05-07T02:24:38;18.40;99.90
12948;DHT22;6539;49.476;8.484;2023-05-07T02:27:04;18.40;99.90
12948;DHT22;6539;49.476;8.484;2023-05-07T02:29:32;18.40;99.90
12948;DHT22;6539;49.476;8.484;2023-05-07T02:31:57;18.60;99.90
12948;DHT22;6539;49.476;8.484;2023-05-07T02:34:23;18.40;99.90
12948;DHT22;6539;49.476;8.484;2023-05-07T02:36:51;18.30;99.90
12948;DHT22;6539;49.476;8.484;2023-05-07T02:39:17;18.30;99.90
12948;DHT22;6539;49.476;8.484;2023-05-07T02:41:45;18.10;99.90
12948;DHT22;6539;49.476;8.484;2023-05-07T02:44:14;18.30;99.90
12948;DHT22;6539;49.476;8.484;2023-05-07T02:46:39;18.30;99.90
12948;DHT22;6539;49.476;8.484;2023-05-07T02:49:07;18.20;99.90
12948;DHT22;6539;49.476;8.484;2023-05-07T02:51:36;18.20;99.90
12948;DHT22;6539;49.476;8.484;2023-05-07T02:54:04;18.20;99.90
12948;DHT22;6539;49.476;8.484;2023-05-07T02:56:30;18.20;99.90
12948;DHT22;6539;49.476;8.484;2023-05-07T02:58:55;18.10;99.90
12948;DHT22;6539;49.476;8.484;2023-05-07T03:01:24;18.20;99.90
12948;DHT22;6539;49.476;8.484;2023-05-07T03:03:49;18.20;99.90
12948;DHT22;6539;49.476;8.484;2023-05-07T03:06:15;18.10;99.90
12948;DHT22;6539;49.476;8.484;2023-05-07T03:08:41;18.10;99.90
12948;DHT22;6539;49.476;8.484;2023-05-07T03:11:07;18.10;99.90
12948;DHT22;6539;49.476;8.484;2023-05-07T03:13:32;18.20;99.90
12948;DHT22;6539;49.476;8.484;2023-05-07T03:15:58;18.00;99.90
12948;DHT22;6539;49.476;8.484;2023-05-07T03:18:24;18.10;99.90
12948;DHT22;6539;49.476;8.484;2023-05-07T03:20:50;18.00;99.90
12948;DHT22;6539;49.476;8.484;2023-05-07T03:23:17;18.00;99.90
12948;DHT22;6539;49.476;8.484;2023-05-07T03:25:42;18.00;99.90
12948;DHT22;6539;49.476;8.484;2023-05-07T03:28:10;18.00;99.90
12948;DHT22;6539;49.476;8.484;2023-05-07T03:30:36;17.80;99.90
12948;DHT22;6539;49.476;8.484;2023-05-07T03:33:02;17.80;99.90
12948;DHT22;6539;49.476;8.484;2023-05-07T03:35:32;18.00;99.90
12948;DHT22;6539;49.476;8.484;2023-05-07T03:37:58;17.80;99.90
12948;DHT22;6539;49.476;8.484;2023-05-07T03:40:24;17.80;99.90
12948;DHT22;6539;49.476;8.484;2023-05-07T03:42:52;17.70;99.90
12948;DHT22;6539;49.476;8.484;2023-05-07T03:45:18;17.60;99.90
12948;DHT22;6539;49.476;8.484;2023-05-07T03:47:45;17.60;99.90
12948;DHT22;6539;49.476;8.484;2023-05-07T03:50:11;17.60;99.90
12948;DHT22;6539;49.476;8.484;2023-05-07T03:52:37;17.60;99.90
12948;DHT22;6539;49.476;8.484;2023-05-07T03:55:05;17.60;99.90
12948;DHT22;6539;49.476;8.484;2023-05-07T03:59:57;17.60;99.90
12948;DHT22;6539;49.476;8.484;2023-05-07T04:02:26;17.60;99.90
12948;DHT22;6539;49.476;8.484;2023-05-07T04:04:52;17.50;99.90
12948;DHT22;6539;49.476;8.484;2023-05-07T04:07:17;17.50;99.90
12948;DHT22;6539;49.476;8.484;2023-05-07T04:09:43;17.50;99.90
12948;DHT22;6539;49.476;8.484;2023-05-07T04:12:11;17.50;99.90
12948;DHT22;6539;49.476;8.484;2023-05-07T04:14:39;17.50;99.90
12948;DHT22;6539;49.476;8.484;2023-05-07T04:17:05;17.50;99.90
12948;DHT22;6539;49.476;8.484;2023-05-07T04:19:33;17.50;99.90
12948;DHT22;6539;49.476;8.484;2023-05-07T04:21:59;17.50;99.90
12948;DHT22;6539;49.476;8.484;2023-05-07T04:24:25;17.50;99.90
12948;DHT22;6539;49.476;8.484;2023-05-07T04:26:50;17.60;99.90
12948;DHT22;6539;49.476;8.484;2023-05-07T04:29:18;17.70;99.90
12948;DHT22;6539;49.476;8.484;2023-05-07T04:31:44;17.70;99.90
12948;DHT22;6539;49.476;8.484;2023-05-07T04:34:11;17.70;99.90
12948;DHT22;6539;49.476;8.484;2023-05-07T04:36:42;17.60;99.90
12948;DHT22;6539;49.476;8.484;2023-05-07T04:39:07;17.60;99.90
12948;DHT22;6539;49.476;8.484;2023-05-07T04:41:36;17.60;99.90
12948;DHT22;6539;49.476;8.484;2023-05-07T04:44:04;17.60;99.90
12948;DHT22;6539;49.476;8.484;2023-05-07T04:46:32;17.70;99.90
12948;DHT22;6539;49.476;8.484;2023-05-07T04:48:57;17.60;99.90
12948;DHT22;6539;49.476;8.484;2023-05-07T04:51:23;17.60;99.90
12948;DHT22;6539;49.476;8.484;2023-05-07T04:53:51;17.60;99.90
12948;DHT22;6539;49.476;8.484;2023-05-07T04:56:19;17.50;99.90
12948;DHT22;6539;49.476;8.484;2023-05-07T04:58:45;17.50;99.90
12948;DHT22;6539;49.476;8.484;2023-05-07T05:01:11;17.60;99.90
12948;DHT22;6539;49.476;8.484;2023-05-07T05:03:37;17.60;99.90
12948;DHT22;6539;49.476;8.484;2023-05-07T05:06:05;17.60;99.90
12948;DHT22;6539;49.476;8.484;2023-05-07T05:08:33;17.60;99.90
12948;DHT22;6539;49.476;8.484;2023-05-07T05:11:02;17.60;99.90
12948;DHT22;6539;49.476;8.484;2023-05-07T05:13:35;17.60;99.90
12948;DHT22;6539;49.476;8.484;2023-05-07T05:16:01;17.60;99.90
12948;DHT22;6539;49.476;8.484;2023-05-07T05:18:26;17.60;99.90
12948;DHT22;6539;49.476;8.484;2023-05-07T05:20:52;17.70;99.90
12948;DHT22;6539;49.476;8.484;2023-05-07T05:23:21;17.70;99.90
12948;DHT22;6539;49.476;8.484;2023-05-07T05:25:48;17.70;99.90
12948;DHT22;6539;49.476;8.484;2023-05-07T05:28:14;17.80;99.90
12948;DHT22;6539;49.476;8.484;2023-05-07T05:30:42;17.80;99.90
12948;DHT22;6539;49.476;8.484;2023-05-07T05:33:08;17.90;99.90
12948;DHT22;6539;49.476;8.484;2023-05-07T05:35:36;17.90;99.90
12948;DHT22;6539;49.476;8.484;2023-05-07T05:38:02;18.00;99.90
12948;DHT22;6539;49.476;8.484;2023-05-07T05:40:28;18.30;99.90
12948;DHT22;6539;49.476;8.484;2023-05-07T05:42:58;18.40;99.90
12948;DHT22;6539;49.476;8.484;2023-05-07T05:45:24;18.40;99.90
12948;DHT22;6539;49.476;8.484;2023-05-07T05:47:52;18.60;99.90
12948;DHT22;6539;49.476;8.484;2023-05-07T05:50:21;18.80;99.90
12948;DHT22;6539;49.476;8.484;2023-05-07T05:52:46;18.90;99.90
12948;DHT22;6539;49.476;8.484;2023-05-07T05:55:12;18.80;99.90
12948;DHT22;6539;49.476;8.484;2023-05-07T05:57:38;18.80;99.90
12948;DHT22;6539;49.476;8.484;2023-05-07T06:00:05;18.80;99.90
12948;DHT22;6539;49.476;8.484;2023-05-07T06:02:32;18.70;99.90
12948;DHT22;6539;49.476;8.484;2023-05-07T06:04:57;18.70;99.90
12948;DHT22;6539;49.476;8.484;2023-05-07T06:07:23;18.70;99.90
12948;DHT22;6539;49.476;8.484;2023-05-07T06:09:49;18.70;99.90
12948;DHT22;6539;49.476;8.484;2023-05-07T06:12:14;18.80;99.90
12948;DHT22;6539;49.476;8.484;2023-05-07T06:14:45;18.80;99.90
12948;DHT22;6539;49.476;8.484;2023-05-07T06:17:11;18.90;99.90
12948;DHT22;6539;49.476;8.484;2023-05-07T06:19:36;19.00;99.90
12948;DHT22;6539;49.476;8.484;2023-05-07T06:22:02;19.00;99.90
12948;DHT22;6539;49.476;8.484;2023-05-07T06:24:28;19.10;99.90
12948;DHT22;6539;49.476;8.484;2023-05-07T06:26:54;19.10;99.90
12948;DHT22;6539;49.476;8.484;2023-05-07T06:29:24;19.10;99.90
12948;DHT22;6539;49.476;8.484;2023-05-07T06:31:52;19.20;99.90
12948;DHT22;6539;49.476;8.484;2023-05-07T06:34:18;19.30;99.90
12948;DHT22;6539;49.476;8.484;2023-05-07T06:36:47;19.20;99.90
12948;DHT22;6539;49.476;8.484;2023-05-07T06:39:15;19.20;99.90
12948;DHT22;6539;49.476;8.484;2023-05-07T06:41:41;19.30;99.90
12948;DHT22;6539;49.476;8.484;2023-05-07T06:44:07;19.30;99.90
12948;DHT22;6539;49.476;8.484;2023-05-07T06:46:32;19.40;99.90
12948;DHT22;6539;49.476;8.484;2023-05-07T06:49:00;19.30;99.90
12948;DHT22;6539;49.476;8.484;2023-05-07T06:51:28;19.20;99.90
12948;DHT22;6539;49.476;8.484;2023-05-07T06:53:56;19.20;99.90
12948;DHT22;6539;49.476;8.484;2023-05-07T06:56:21;19.40;99.90
12948;DHT22;6539;49.476;8.484;2023-05-07T06:58:48;19.60;99.90
12948;DHT22;6539;49.476;8.484;2023-05-07T07:01:14;19.80;99.90
12948;DHT22;6539;49.476;8.484;2023-05-07T07:03:42;19.80;99.90
12948;DHT22;6539;49.476;8.484;2023-05-07T07:06:08;20.20;99.90
12948;DHT22;6539;49.476;8.484;2023-05-07T07:08:34;20.50;99.90
12948;DHT22;6539;49.476;8.484;2023-05-07T07:11:04;20.60;99.90
12948;DHT22;6539;49.476;8.484;2023-05-07T07:13:40;20.60;99.90
12948;DHT22;6539;49.476;8.484;2023-05-07T07:16:06;20.60;99.90
12948;DHT22;6539;49.476;8.484;2023-05-07T07:18:32;20.70;99.90
12948;DHT22;6539;49.476;8.484;2023-05-07T07:21:01;21.10;99.90
12948;DHT22;6539;49.476;8.484;2023-05-07T07:23:30;21.00;99.90
12948;DHT22;6539;49.476;8.484;2023-05-07T07:25:55;21.00;99.90
12948;DHT22;6539;49.476;8.484;2023-05-07T07:28:26;21.00;99.90
12948;DHT22;6539;49.476;8.484;2023-05-07T07:30:52;21.10;99.90
12948;DHT22;6539;49.476;8.484;2023-05-07T07:33:17;21.20;99.90
12948;DHT22;6539;49.476;8.484;2023-05-07T07:35:48;21.30;99.90
12948;DHT22;6539;49.476;8.484;2023-05-07T07:38:16;21.30;99.90
12948;DHT22;6539;49.476;8.484;2023-05-07T07:40:42;21.40;99.90
12948;DHT22;6539;49.476;8.484;2023-05-07T07:43:09;21.20;99.90
12948;DHT22;6539;49.476;8.484;2023-05-07T07:45:35;21.40;99.90
12948;DHT22;6539;49.476;8.484;2023-05-07T07:48:03;21.40;99.90
12948;DHT22;6539;49.476;8.484;2023-05-07T07:50:29;21.40;99.90
12948;DHT22;6539;49.476;8.484;2023-05-07T07:52:55;21.40;99.90
12948;DHT22;6539;49.476;8.484;2023-05-07T07:55:23;21.40;99.90
12948;DHT22;6539;49.476;8.484;2023-05-07T07:57:51;21.40;99.90
12948;DHT22;6539;49.476;8.484;2023-05-07T08:00:22;21.30;99.90
12948;DHT22;6539;49.476;8.484;2023-05-07T08:02:50;21.30;99.90
12948;DHT22;6539;49.476;8.484;2023-05-07T08:05:16;21.40;99.90
12948;DHT22;6539;49.476;8.484;2023-05-07T08:07:47;21.50;99.90
12948;DHT22;6539;49.476;8.484;2023-05-07T08:10:17;21.60;99.90
12948;DHT22;6539;49.476;8.484;2023-05-07T08:12:47;21.50;99.90
12948;DHT22;6539;49.476;8.484;2023-05-07T08:15:16;21.40;99.90
12948;DHT22;6539;49.476;8.484;2023-05-07T08:17:44;21.30;99.90
12948;DHT22;6539;49.476;8.484;2023-05-07T08:20:10;21.30;99.90
12948;DHT22;6539;49.476;8.484;2023-05-07T08:22:38;21.30;99.90
12948;DHT22;6539;49.476;8.484;2023-05-07T08:25:06;21.30;99.90
12948;DHT22;6539;49.476;8.484;2023-05-07T08:27:35;21.30;99.90
12948;DHT22;6539;49.476;8.484;2023-05-07T08:30:04;21.40;99.90
12948;DHT22;6539;49.476;8.484;2023-05-07T08:32:30;21.50;99.90
12948;DHT22;6539;49.476;8.484;2023-05-07T08:34:55;21.60;99.90
12948;DHT22;6539;49.476;8.484;2023-05-07T08:37:21;21.60;99.90
12948;DHT22;6539;49.476;8.484;2023-05-07T08:39:47;21.60;99.90
12948;DHT22;6539;49.476;8.484;2023-05-07T08:42:13;21.60;99.90
12948;DHT22;6539;49.476;8.484;2023-05-07T08:44:45;21.60;99.90
12948;DHT22;6539;49.476;8.484;2023-05-07T08:47:22;21.60;99.90
12948;DHT22;6539;49.476;8.484;2023-05-07T08:49:55;21.80;99.90
12948;DHT22;6539;49.476;8.484;2023-05-07T08:52:21;21.90;99.90
12948;DHT22;6539;49.476;8.484;2023-05-07T08:54:46;22.10;99.90
12948;DHT22;6539;49.476;8.484;2023-05-07T08:57:15;22.00;99.90
12948;DHT22;6539;49.476;8.484;2023-05-07T08:59:41;22.20;99.90
12948;DHT22;6539;49.476;8.484;2023-05-07T09:02:09;22.50;99.90
12948;DHT22;6539;49.476;8.484;2023-05-07T09:04:43;22.70;99.90
12948;DHT22;6539;49.476;8.484;2023-05-07T09:07:09;22.90;99.90
12948;DHT22;6539;49.476;8.484;2023-05-07T09:09:40;23.20;99.90
12948;DHT22;6539;49.476;8.484;2023-05-07T09:12:06;23.40;99.90
12948;DHT22;6539;49.476;8.484;2023-05-07T09:14:32;23.60;99.90
12948;DHT22;6539;49.476;8.484;2023-05-07T09:16:58;23.60;99.90
12948;DHT22;6539;49.476;8.484;2023-05-07T09:19:25;24.40;99.90
12948;DHT22;6539;49.476;8.484;2023-05-07T09:21:59;24.30;99.90
12948;DHT22;6539;49.476;8.484;2023-05-07T09:24:34;24.40;99.90
12948;DHT22;6539;49.476;8.484;2023-05-07T09:27:06;24.50;99.90
12948;DHT22;6539;49.476;8.484;2023-05-07T09:29:39;24.40;99.90
12948;DHT22;6539;49.476;8.484;2023-05-07T09:32:08;24.30;99.90
12948;DHT22;6539;49.476;8.484;2023-05-07T09:34:34;24.00;99.90
12948;DHT22;6539;49.476;8.484;2023-05-07T09:37:04;23.80;99.90
12948;DHT22;6539;49.476;8.484;2023-05-07T09:39:48;23.70;99.90
12948;DHT22;6539;49.476;8.484;2023-05-07T09:42:15;23.70;99.90
12948;DHT22;6539;49.476;8.484;2023-05-07T09:44:43;23.70;99.90
12948;DHT22;6539;49.476;8.484;2023-05-07T09:47:19;23.90;99.90
12948;DHT22;6539;49.476;8.484;2023-05-07T09:49:49;24.10;99.90
12948;DHT22;6539;49.476;8.484;2023-05-07T09:52:19;24.20;99.90
12948;DHT22;6539;49.476;8.484;2023-05-07T09:54:49;24.30;99.90
12948;DHT22;6539;49.476;8.484;2023-05-07T09:57:22;24.30;99.90
12948;DHT22;6539;49.476;8.484;2023-05-07T09:59:49;24.90;99.90
12948;DHT22;6539;49.476;8.484;2023-05-07T10:02:18;25.00;99.90
12948;DHT22;6539;49.476;8.484;2023-05-07T10:04:46;25.40;99.90
12948;DHT22;6539;49.476;8.484;2023-05-07T10:07:16;25.70;99.90
12948;DHT22;6539;49.476;8.484;2023-05-07T10:09:46;25.90;99.90
12948;DHT22;6539;49.476;8.484;2023-05-07T10:12:12;26.10;99.90
12948;DHT22;6539;49.476;8.484;2023-05-07T10:14:43;26.20;99.90
12948;DHT22;6539;49.476;8.484;2023-05-07T10:17:13;26.30;99.90
12948;DHT22;6539;49.476;8.484;2023-05-07T10:19:47;26.40;99.90
12948;DHT22;6539;49.476;8.484;2023-05-07T10:22:18;26.50;99.90
12948;DHT22;6539;49.476;8.484;2023-05-07T10:24:49;26.70;99.90
12948;DHT22;6539;49.476;8.484;2023-05-07T10:27:19;26.80;99.90
12948;DHT22;6539;49.476;8.484;2023-05-07T10:32:53;26.80;99.90
12948;DHT22;6539;49.476;8.484;2023-05-07T10:35:29;26.90;99.90
12948;DHT22;6539;49.476;8.484;2023-05-07T10:37:59;27.00;99.90
12948;DHT22;6539;49.476;8.484;2023-05-07T10:40:31;27.10;99.90
12948;DHT22;6539;49.476;8.484;2023-05-07T10:42:58;27.00;99.90
12948;DHT22;6539;49.476;8.484;2023-05-07T10:45:31;27.10;99.90
12948;DHT22;6539;49.476;8.484;2023-05-07T10:50:31;27.40;99.90
12948;DHT22;6539;49.476;8.484;2023-05-07T10:55:51;27.60;99.90
12948;DHT22;6539;49.476;8.484;2023-05-07T10:58:39;27.60;99.90
12948;DHT22;6539;49.476;8.484;2023-05-07T11:01:07;27.70;99.90
12948;DHT22;6539;49.476;8.484;2023-05-07T11:04:13;27.70;99.90
12948;DHT22;6539;49.476;8.484;2023-05-07T11:15:32;27.40;99.90
12948;DHT22;6539;49.476;8.484;2023-05-07T11:18:00;27.20;99.90
12948;DHT22;6539;49.476;8.484;2023-05-07T11:20:53;27.10;99.90
12948;DHT22;6539;49.476;8.484;2023-05-07T11:26:04;26.80;99.90
12948;DHT22;6539;49.476;8.484;2023-05-07T11:28:36;26.90;99.90
12948;DHT22;6539;49.476;8.484;2023-05-07T11:31:03;27.10;99.90
12948;DHT22;6539;49.476;8.484;2023-05-07T11:33:30;27.20;99.90
12948;DHT22;6539;49.476;8.484;2023-05-07T11:36:03;27.20;99.90
12948;DHT22;6539;49.476;8.484;2023-05-07T11:38:30;27.30;99.90
12948;DHT22;6539;49.476;8.484;2023-05-07T11:40:59;27.30;99.90
12948;DHT22;6539;49.476;8.484;2023-05-07T11:43:26;27.20;99.30
12948;DHT22;6539;49.476;8.484;2023-05-07T11:45:52;27.20;99.80
12948;DHT22;6539;49.476;8.484;2023-05-07T11:48:21;27.20;99.90
12948;DHT22;6539;49.476;8.484;2023-05-07T11:50:51;27.30;99.70
12948;DHT22;6539;49.476;8.484;2023-05-07T11:53:20;27.50;99.80
12948;DHT22;6539;49.476;8.484;2023-05-07T11:55:53;27.90;99.90
12948;DHT22;6539;49.476;8.484;2023-05-07T11:58:22;27.90;99.70
12948;DHT22;6539;49.476;8.484;2023-05-07T12:00:57;28.00;99.50
12948;DHT22;6539;49.476;8.484;2023-05-07T12:03:22;28.20;99.30
12948;DHT22;6539;49.476;8.484;2023-05-07T12:05:48;28.40;99.50
12948;DHT22;6539;49.476;8.484;2023-05-07T12:08:17;28.40;98.40
12948;DHT22;6539;49.476;8.484;2023-05-07T12:10:48;28.40;97.70
12948;DHT22;6539;49.476;8.484;2023-05-07T12:13:23;28.40;97.70
12948;DHT22;6539;49.476;8.484;2023-05-07T12:15:51;28.40;97.30
12948;DHT22;6539;49.476;8.484;2023-05-07T12:18:20;28.30;97.30
12948;DHT22;6539;49.476;8.484;2023-05-07T12:20:48;28.40;97.30
12948;DHT22;6539;49.476;8.484;2023-05-07T12:23:15;28.30;98.30
12948;DHT22;6539;49.476;8.484;2023-05-07T12:25:44;28.20;97.30
12948;DHT22;6539;49.476;8.484;2023-05-07T12:28:15;28.20;97.50
12948;DHT22;6539;49.476;8.484;2023-05-07T12:30:46;28.00;97.30
12948;DHT22;6539;49.476;8.484;2023-05-07T12:33:27;27.90;97.50
12948;DHT22;6539;49.476;8.484;2023-05-07T12:35:56;27.90;97.20
12948;DHT22;6539;49.476;8.484;2023-05-07T12:38:22;27.70;96.90
12948;DHT22;6539;49.476;8.484;2023-05-07T12:40:55;27.60;97.20
12948;DHT22;6539;49.476;8.484;2023-05-07T12:43:25;26.90;99.40
12948;DHT22;6539;49.476;8.484;2023-05-07T12:45:54;27.10;97.90
12948;DHT22;6539;49.476;8.484;2023-05-07T12:48:22;27.10;97.70
12948;DHT22;6539;49.476;8.484;2023-05-07T12:50:55;27.20;97.20
12948;DHT22;6539;49.476;8.484;2023-05-07T12:53:25;27.10;96.20
12948;DHT22;6539;49.476;8.484;2023-05-07T12:55:55;27.00;96.20
12948;DHT22;6539;49.476;8.484;2023-05-07T12:58:33;26.80;96.20
12948;DHT22;6539;49.476;8.484;2023-05-07T13:01:04;26.70;96.70
12948;DHT22;6539;49.476;8.484;2023-05-07T13:03:34;26.60;96.50
12948;DHT22;6539;49.476;8.484;2023-05-07T13:06:05;26.60;96.40
12948;DHT22;6539;49.476;8.484;2023-05-07T13:08:36;26.60;96.40
12948;DHT22;6539;49.476;8.484;2023-05-07T13:11:10;26.50;96.10
12948;DHT22;6539;49.476;8.484;2023-05-07T13:13:40;26.40;96.30
12948;DHT22;6539;49.476;8.484;2023-05-07T13:16:08;26.40;96.60
12948;DHT22;6539;49.476;8.484;2023-05-07T13:18:39;26.40;96.50
12948;DHT22;6539;49.476;8.484;2023-05-07T13:21:05;26.40;96.80
12948;DHT22;6539;49.476;8.484;2023-05-07T13:23:31;26.40;97.00
12948;DHT22;6539;49.476;8.484;2023-05-07T13:25:59;26.40;97.00
12948;DHT22;6539;49.476;8.484;2023-05-07T13:28:26;26.30;96.50
12948;DHT22;6539;49.476;8.484;2023-05-07T13:30:52;26.20;96.40
12948;DHT22;6539;49.476;8.484;2023-05-07T13:33:19;26.20;96.50
12948;DHT22;6539;49.476;8.484;2023-05-07T13:35:47;26.20;96.40
12948;DHT22;6539;49.476;8.484;2023-05-07T13:38:13;26.20;96.50
12948;DHT22;6539;49.476;8.484;2023-05-07T13:40:41;26.30;96.60
12948;DHT22;6539;49.476;8.484;2023-05-07T13:43:09;26.10;96.70
12948;DHT22;6539;49.476;8.484;2023-05-07T13:45:35;26.00;97.00
12948;DHT22;6539;49.476;8.484;2023-05-07T13:48:01;25.90;97.30
12948;DHT22;6539;49.476;8.484;2023-05-07T13:50:32;25.90;97.70
12948;DHT22;6539;49.476;8.484;2023-05-07T13:52:57;25.80;98.20
12948;DHT22;6539;49.476;8.484;2023-05-07T13:55:24;25.70;98.40
12948;DHT22;6539;49.476;8.484;2023-05-07T13:57:59;25.70;98.70
12948;DHT22;6539;49.476;8.484;2023-05-07T14:00:27;25.60;99.60
12948;DHT22;6539;49.476;8.484;2023-05-07T14:02:56;25.40;99.90
12948;DHT22;6539;49.476;8.484;2023-05-07T14:05:23;25.20;99.90
12948;DHT22;6539;49.476;8.484;2023-05-07T14:07:54;25.00;99.90
12948;DHT22;6539;49.476;8.484;2023-05-07T14:10:22;24.90;99.90
12948;DHT22;6539;49.476;8.484;2023-05-07T14:12:50;25.00;99.90
12948;DHT22;6539;49.476;8.484;2023-05-07T14:15:19;24.90;99.90
12948;DHT22;6539;49.476;8.484;2023-05-07T14:17:45;24.70;99.90
12948;DHT22;6539;49.476;8.484;2023-05-07T14:20:12;24.70;99.90
12948;DHT22;6539;49.476;8.484;2023-05-07T14:22:38;24.60;99.90
12948;DHT22;6539;49.476;8.484;2023-05-07T14:25:04;24.50;99.90
12948;DHT22;6539;49.476;8.484;2023-05-07T14:27:34;24.30;99.90
12948;DHT22;6539;49.476;8.484;2023-05-07T14:30:00;24.10;99.90
12948;DHT22;6539;49.476;8.484;2023-05-07T14:32:26;24.00;99.90
12948;DHT22;6539;49.476;8.484;2023-05-07T14:34:54;23.50;99.90
12948;DHT22;6539;49.476;8.484;2023-05-07T14:37:23;23.40;99.90
12948;DHT22;6539;49.476;8.484;2023-05-07T14:39:51;23.20;99.90
12948;DHT22;6539;49.476;8.484;2023-05-07T14:42:17;23.00;99.90
12948;DHT22;6539;49.476;8.484;2023-05-07T14:44:46;22.70;99.90
12948;DHT22;6539;49.476;8.484;2023-05-07T14:47:13;22.70;99.90
12948;DHT22;6539;49.476;8.484;2023-05-07T14:49:42;22.60;99.90
12948;DHT22;6539;49.476;8.484;2023-05-07T14:52:11;22.60;99.90
12948;DHT22;6539;49.476;8.484;2023-05-07T14:54:37;22.50;99.90
12948;DHT22;6539;49.476;8.484;2023-05-07T14:57:05;22.20;99.90
12948;DHT22;6539;49.476;8.484;2023-05-07T14:59:34;21.70;99.90
12948;DHT22;6539;49.476;8.484;2023-05-07T15:02:00;21.70;99.90
12948;DHT22;6539;49.476;8.484;2023-05-07T15:04:26;21.20;99.90
12948;DHT22;6539;49.476;8.484;2023-05-07T15:06:52;21.10;99.90
12948;DHT22;6539;49.476;8.484;2023-05-07T15:09:21;20.80;99.90
12948;DHT22;6539;49.476;8.484;2023-05-07T15:11:47;20.70;99.90
12948;DHT22;6539;49.476;8.484;2023-05-07T15:14:15;20.60;99.90
12948;DHT22;6539;49.476;8.484;2023-05-07T15:16:40;20.50;99.90
12948;DHT22;6539;49.476;8.484;2023-05-07T15:19:06;20.20;99.90
12948;DHT22;6539;49.476;8.484;2023-05-07T15:21:32;20.10;99.90
12948;DHT22;6539;49.476;8.484;2023-05-07T15:24:02;20.20;99.90
12948;DHT22;6539;49.476;8.484;2023-05-07T15:26:28;20.20;99.90
12948;DHT22;6539;49.476;8.484;2023-05-07T15:28:54;20.20;99.90
12948;DHT22;6539;49.476;8.484;2023-05-07T15:31:25;20.00;99.90
12948;DHT22;6539;49.476;8.484;2023-05-07T15:33:55;19.90;99.90
12948;DHT22;6539;49.476;8.484;2023-05-07T15:36:21;19.80;99.90
12948;DHT22;6539;49.476;8.484;2023-05-07T15:38:49;19.60;99.90
12948;DHT22;6539;49.476;8.484;2023-05-07T15:41:17;19.30;99.90
12948;DHT22;6539;49.476;8.484;2023-05-07T15:43:47;19.20;99.90
12948;DHT22;6539;49.476;8.484;2023-05-07T15:46:19;19.10;99.90
12948;DHT22;6539;49.476;8.484;2023-05-07T15:48:48;19.00;99.90
12948;DHT22;6539;49.476;8.484;2023-05-07T15:51:16;18.90;99.90
12948;DHT22;6539;49.476;8.484;2023-05-07T15:53:43;19.00;99.90
12948;DHT22;6539;49.476;8.484;2023-05-07T15:56:09;19.10;99.90
12948;DHT22;6539;49.476;8.484;2023-05-07T15:58:37;19.10;99.90
12948;DHT22;6539;49.476;8.484;2023-05-07T16:01:05;18.90;99.90
12948;DHT22;6539;49.476;8.484;2023-05-07T16:03:31;18.90;99.90
12948;DHT22;6539;49.476;8.484;2023-05-07T16:05:58;18.90;99.90
12948;DHT22;6539;49.476;8.484;2023-05-07T16:08:26;18.70;99.90
12948;DHT22;6539;49.476;8.484;2023-05-07T16:10:52;18.50;99.90
12948;DHT22;6539;49.476;8.484;2023-05-07T16:13:18;18.60;99.90
12948;DHT22;6539;49.476;8.484;2023-05-07T16:15:47;18.60;99.90